Aviation Digital Data Service (ADDS)

Output produced by METARs form (0251 UTC 22 April 2019)
found at http://www.aviationweather.gov/metar/data/
 
Forecast for: YSNF (NORFOLK ISLAND A, AU)
Text: TAF YSNF 212329Z 2200/2224 12012KT 9999 -SHRA SCT015 SCT030
Forecast period: 0000 UTC 22 April 2019 to 0000 UTC 23 April 2019
Forecast type: FROM: standard forecast or significant change
Winds: from the ESE (120 degrees) at 14 MPH (12 knots; 6.2 m/s)
Visibility: 6 or more miles 10+ km)
Ceiling: at least 12,000 feet AGL
Clouds: scattered clouds at 1500 feet AGL
scattered clouds at 3000 feet AGL
Weather: -SHRA  (light rain showers)